createdAt,value
2019-04-07T00:01:04.636Z,68.25
2019-04-07T00:03:40.053Z,64.65
2019-04-07T00:06:15.669Z,71.70
2019-04-07T00:08:56.476Z,69.42
2019-04-07T00:11:32.336Z,75.47
2019-04-07T00:14:07.520Z,72.17
2019-04-07T00:16:45.890Z,73.60
2019-04-07T00:19:21.124Z,67.25
2019-04-07T00:21:57.701Z,67.22
2019-04-07T00:24:33.184Z,75.22
2019-04-07T00:27:08.406Z,71.97
2019-04-07T00:29:44.152Z,62.85
2019-04-07T00:32:20.020Z,69.20
2019-04-07T00:34:55.286Z,71.87
2019-04-07T00:37:31.044Z,70.52
2019-04-07T00:40:07.019Z,70.42
2019-04-07T00:42:42.843Z,70.80
2019-04-07T00:45:18.544Z,72.72
2019-04-07T00:47:54.371Z,72.10
2019-04-07T00:50:30.707Z,72.92
2019-04-07T00:53:06.451Z,71.33
2019-04-07T00:55:41.754Z,69.25
2019-04-07T00:58:17.863Z,66.25
2019-04-07T01:00:53.689Z,76.10
2019-04-07T01:03:29.144Z,67.20
2019-04-07T01:06:17.515Z,77.90
2019-04-07T01:08:54.751Z,79.05
2019-04-07T01:11:29.955Z,72.47
2019-04-07T01:14:05.965Z,79.87
2019-04-07T01:16:41.775Z,79.87
2019-04-07T01:19:17.005Z,78.55
2019-04-07T01:21:52.176Z,82.30
2019-04-07T01:24:27.713Z,81.12
2019-04-07T01:27:02.898Z,86.72
2019-04-07T01:29:38.104Z,86.90
2019-04-07T01:32:13.969Z,82.57
2019-04-07T01:34:49.408Z,84.35
2019-04-07T01:37:25.221Z,80.67
2019-04-07T01:40:00.469Z,86.30
2019-04-07T01:42:44.606Z,95.57
2019-04-07T01:45:39.986Z,91.15
2019-04-07T01:48:38.212Z,96.40
2019-04-07T01:51:23.652Z,98.65
2019-04-07T01:54:24.052Z,93.50
2019-04-07T01:57:16.902Z,115.17
2019-04-07T02:00:17.192Z,112.70
2019-04-07T02:02:59.140Z,115.12
2019-04-07T02:06:05.982Z,116.65
2019-04-07T02:09:07.130Z,121.28
2019-04-07T02:12:07.185Z,102.47
2019-04-07T02:15:00.008Z,99.17
2019-04-07T02:17:43.897Z,113.57
2019-04-07T02:21:14.386Z,108.52
2019-04-07T02:24:14.475Z,113.03
2019-04-07T02:27:08.607Z,129.95
2019-04-07T02:30:03.720Z,142.18
2019-04-07T02:32:54.484Z,129.97
2019-04-07T02:35:38.412Z,123.13
2019-04-07T02:38:23.077Z,128.25
2019-04-07T02:41:15.954Z,129.95
2019-04-07T02:44:15.917Z,138.32
2019-04-07T02:47:10.030Z,142.55
2019-04-07T02:50:16.018Z,131.27
2019-04-07T02:53:11.072Z,134.72
2019-04-07T02:56:05.385Z,138.07
2019-04-07T02:59:01.374Z,127.07
2019-04-07T03:01:54.037Z,126.15
2019-04-07T03:04:48.480Z,136.65
2019-04-07T03:07:43.107Z,143.30
2019-04-07T03:10:52.404Z,140.55
2019-04-07T03:13:47.152Z,143.20
2019-04-07T03:16:40.588Z,129.23
2019-04-07T03:19:37.787Z,143.82
2019-04-07T03:22:25.780Z,139.37
2019-04-07T03:25:19.133Z,131.72
2019-04-07T03:28:19.775Z,141.65
2019-04-07T03:31:06.410Z,137.68
2019-04-07T03:34:03.025Z,160.82
2019-04-07T03:37:18.255Z,151.32
2019-04-07T03:39:57.521Z,177.93
2019-04-07T03:42:43.652Z,165.85
2019-04-07T03:45:25.172Z,161.45
2019-04-07T03:48:19.659Z,163.10
2019-04-07T03:51:20.319Z,171.47
2019-04-07T03:54:10.206Z,172.47
2019-04-07T03:57:02.012Z,173.78
2019-04-07T03:59:48.958Z,170.60
2019-04-07T04:02:43.023Z,173.95
2019-04-07T04:05:39.344Z,164.52
2019-04-07T04:08:28.746Z,162.65
2019-04-07T04:11:18.780Z,169.65
2019-04-07T04:14:11.144Z,172.35
2019-04-07T04:16:49.387Z,165.65
2019-04-07T04:19:27.024Z,169.87
2019-04-07T04:22:02.355Z,171.10
2019-04-07T04:24:38.131Z,164.18
2019-04-07T04:27:13.363Z,157.12
2019-04-07T04:29:51.783Z,163.32
2019-04-07T04:32:25.609Z,166.75
2019-04-07T04:35:01.048Z,163.37
2019-04-07T04:37:44.199Z,170.47
2019-04-07T04:40:14.062Z,168.72
2019-04-07T04:42:49.398Z,180.30
2019-04-07T04:45:24.691Z,166.07
2019-04-07T04:48:00.174Z,163.90
2019-04-07T04:50:35.647Z,176.07
2019-04-07T04:53:10.838Z,191.22
2019-04-07T04:55:47.092Z,181.05
2019-04-07T04:58:22.902Z,182.75
2019-04-07T05:00:58.881Z,178.87
2019-04-07T05:03:35.070Z,179.75
2019-04-07T05:06:11.016Z,177.72
2019-04-07T05:08:46.978Z,185.28
2019-04-07T05:11:22.201Z,181.60
2019-04-07T05:13:58.121Z,209.40
2019-04-07T05:16:33.550Z,174.40
2019-04-07T05:19:10.146Z,192.95
2019-04-07T05:21:45.784Z,191.00
2019-04-07T05:24:21.258Z,180.78
2019-04-07T05:26:57.261Z,205.03
2019-04-07T05:29:32.535Z,197.55
2019-04-07T05:32:07.996Z,171.72
2019-04-07T05:34:43.167Z,184.10
2019-04-07T05:37:18.838Z,188.42
2019-04-07T05:39:54.057Z,186.10
2019-04-07T05:42:30.065Z,179.53
2019-04-07T05:45:05.327Z,177.85
2019-04-07T05:47:43.597Z,175.72
2019-04-07T05:50:17.426Z,182.90
2019-04-07T05:52:53.046Z,187.05
2019-04-07T05:55:28.250Z,184.37
2019-04-07T05:58:06.470Z,188.57
2019-04-07T06:00:41.580Z,176.02
2019-04-07T06:03:17.594Z,184.65
2019-04-07T06:05:52.909Z,172.82
2019-04-07T06:08:35.540Z,167.77
2019-04-07T06:11:05.260Z,169.57
2019-04-07T06:13:43.867Z,165.92
2019-04-07T06:16:19.948Z,172.82
2019-04-07T06:18:54.246Z,169.28
2019-04-07T06:21:29.536Z,165.12
2019-04-07T06:24:04.811Z,171.75
2019-04-07T06:26:42.119Z,178.12
2019-04-07T06:29:17.042Z,170.47
2019-04-07T06:31:52.793Z,161.47
2019-04-07T06:34:28.143Z,164.65
2019-04-07T06:37:03.535Z,169.20
2019-04-07T06:39:39.109Z,165.15
2019-04-07T06:42:14.308Z,162.32
2019-04-07T06:44:51.667Z,159.25
2019-04-07T06:47:47.156Z,160.63
2019-04-07T06:50:32.142Z,148.60
2019-04-07T06:53:17.448Z,163.30
2019-04-07T06:56:11.461Z,155.35
2019-04-07T06:59:23.291Z,145.80
2019-04-07T07:02:16.304Z,149.12
2019-04-07T07:05:16.591Z,139.57
2019-04-07T07:08:13.673Z,134.85
2019-04-07T07:11:27.581Z,134.35
2019-04-07T07:14:30.595Z,131.93
2019-04-07T07:17:14.927Z,130.57
2019-04-07T07:20:01.401Z,130.12
2019-04-07T07:22:50.767Z,136.00
2019-04-07T07:25:28.589Z,132.03
2019-04-07T07:28:04.531Z,123.60
2019-04-07T07:30:40.405Z,127.45
2019-04-07T07:33:15.716Z,121.53
2019-04-07T07:35:50.942Z,116.97
2019-04-07T07:38:27.734Z,114.92
2019-04-07T07:41:04.495Z,118.75
2019-04-07T07:43:40.288Z,118.05
2019-04-07T07:46:18.109Z,111.57
2019-04-07T07:48:57.107Z,105.97
2019-04-07T07:51:30.332Z,105.70
2019-04-07T07:54:14.967Z,109.10
2019-04-07T07:56:51.223Z,104.80
2019-04-07T07:59:30.696Z,106.15
2019-04-07T08:02:04.307Z,107.52
2019-04-07T08:04:40.474Z,103.53
2019-04-07T08:07:16.662Z,99.45
2019-04-07T08:09:54.399Z,100.75
2019-04-07T08:12:32.403Z,95.87
2019-04-07T08:15:07.104Z,94.52
2019-04-07T08:17:46.334Z,89.42
2019-04-07T08:20:22.030Z,90.40
2019-04-07T08:22:57.295Z,86.60
2019-04-07T08:25:33.570Z,84.62
2019-04-07T08:28:09.310Z,86.47
2019-04-07T08:30:47.651Z,80.55
2019-04-07T08:33:23.695Z,88.50
2019-04-07T08:35:59.003Z,86.40
2019-04-07T08:38:38.262Z,84.90
2019-04-07T08:41:15.547Z,82.53
2019-04-07T08:43:53.240Z,82.53
2019-04-07T08:46:32.281Z,84.10
2019-04-07T08:49:07.653Z,69.55
2019-04-07T08:51:43.770Z,70.00
2019-04-07T08:54:19.090Z,67.92
2019-04-07T08:56:56.893Z,62.27
2019-04-07T08:59:32.282Z,64.30
2019-04-07T09:02:07.667Z,59.85
2019-04-07T09:04:47.342Z,60.08
2019-04-07T09:07:22.575Z,60.48
2019-04-07T09:09:56.657Z,59.77
2019-04-07T09:12:32.236Z,62.88
2019-04-07T09:15:11.766Z,58.28
2019-04-07T09:18:08.774Z,54.77
2019-04-07T09:20:51.865Z,48.58
2019-04-07T09:23:44.754Z,42.20
2019-04-07T09:26:42.111Z,41.73
2019-04-07T09:29:28.125Z,43.20
2019-04-07T09:32:30.812Z,37.58
2019-04-07T09:35:26.491Z,36.50
2019-04-07T09:38:21.718Z,40.78
2019-04-07T09:41:21.654Z,37.60
2019-04-07T09:44:05.857Z,39.58
2019-04-07T09:47:00.833Z,36.60
2019-04-07T09:50:03.468Z,36.63
2019-04-07T09:53:00.735Z,33.75
2019-04-07T09:56:13.445Z,33.02
2019-04-07T09:59:19.162Z,31.87
2019-04-07T10:02:05.922Z,32.75
2019-04-07T10:05:04.416Z,35.78
2019-04-07T10:08:04.460Z,34.43
2019-04-07T10:10:57.256Z,34.85
2019-04-07T10:13:53.055Z,35.73
2019-04-07T10:19:48.954Z,36.13
2019-04-07T10:22:49.129Z,35.85
2019-04-07T10:25:30.515Z,34.38
2019-04-07T10:28:16.683Z,33.92
2019-04-07T10:31:02.371Z,36.45
2019-04-07T10:33:59.568Z,37.40
2019-04-07T10:36:42.880Z,36.10
2019-04-07T10:39:37.112Z,37.03
2019-04-07T10:42:34.649Z,35.08
2019-04-07T10:45:28.429Z,30.50
2019-04-07T10:48:34.784Z,30.82
2019-04-07T10:51:27.554Z,29.18
2019-04-07T10:54:22.406Z,29.50
2019-04-07T10:57:25.731Z,29.80
2019-04-07T11:00:28.722Z,30.85
2019-04-07T11:03:23.021Z,31.10
2019-04-07T11:06:19.196Z,32.93
2019-04-07T11:09:23.562Z,28.17
2019-04-07T11:12:11.933Z,29.82
2019-04-07T11:15:04.691Z,27.17
2019-04-07T11:17:49.382Z,28.40
2019-04-07T11:20:47.206Z,26.52
2019-04-07T11:23:50.951Z,27.58
2019-04-07T11:26:48.588Z,25.65
2019-04-07T11:29:37.659Z,26.12
2019-04-07T11:32:22.893Z,25.35
2019-04-07T11:35:15.773Z,26.23
2019-04-07T11:38:10.363Z,24.75
2019-04-07T11:41:17.003Z,23.47
2019-04-07T11:44:07.329Z,24.43
2019-04-07T11:47:14.154Z,24.18
2019-04-07T11:50:11.120Z,26.23
2019-04-07T11:53:03.929Z,24.50
2019-04-07T11:56:05.951Z,28.60
2019-04-07T11:59:15.112Z,27.67
2019-04-07T12:02:09.466Z,23.98
2019-04-07T12:05:09.856Z,22.62
2019-04-07T12:08:02.558Z,23.50
2019-04-07T12:11:01.723Z,25.60
2019-04-07T12:13:57.647Z,27.85
2019-04-07T12:16:44.811Z,22.87
2019-04-07T12:19:30.842Z,22.87
2019-04-07T12:22:19.376Z,26.05
2019-04-07T12:25:23.326Z,24.00
2019-04-07T12:28:09.778Z,21.20
2019-04-07T12:30:52.825Z,19.90
2019-04-07T12:33:37.460Z,20.97
2019-04-07T12:36:30.727Z,19.50
2019-04-07T12:39:19.159Z,19.15
2019-04-07T12:42:10.225Z,20.50
2019-04-07T12:45:00.537Z,19.40
2019-04-07T12:47:44.012Z,19.62
2019-04-07T12:50:41.111Z,21.75
2019-04-07T12:53:36.233Z,20.57
2019-04-07T12:56:33.344Z,20.50
2019-04-07T12:59:16.908Z,25.00
2019-04-07T13:02:00.763Z,22.93
2019-04-07T13:05:02.895Z,22.82
2019-04-07T13:08:00.473Z,24.72
2019-04-07T13:11:24.676Z,24.82
2019-04-07T13:14:10.021Z,22.95
2019-04-07T13:17:10.516Z,24.18
2019-04-07T13:19:58.261Z,23.75
2019-04-07T13:22:49.708Z,21.40
2019-04-07T13:25:42.877Z,21.17
2019-04-07T13:28:51.870Z,21.55
2019-04-07T13:31:38.480Z,19.55
2019-04-07T13:34:31.138Z,20.48
2019-04-07T13:37:34.804Z,20.55
2019-04-07T13:40:15.840Z,18.87
2019-04-07T13:43:13.416Z,20.70
2019-04-07T13:46:22.214Z,18.50
2019-04-07T13:49:18.188Z,18.87
2019-04-07T13:52:19.318Z,17.87
2019-04-07T13:54:59.079Z,19.70
2019-04-07T13:57:44.076Z,19.32
2019-04-07T14:00:37.139Z,15.00
2019-04-07T14:03:25.794Z,17.80
2019-04-07T14:06:15.297Z,15.10
2019-04-07T14:09:12.323Z,16.23
2019-04-07T14:12:05.495Z,17.65
2019-04-07T14:14:52.679Z,18.85
2019-04-07T14:17:51.248Z,16.52
2019-04-07T14:20:48.611Z,17.15
2019-04-07T14:23:54.586Z,17.00
2019-04-07T14:26:54.908Z,14.90
2019-04-07T14:29:48.153Z,14.78
2019-04-07T14:32:52.009Z,12.65
2019-04-07T14:36:01.290Z,14.40
2019-04-07T14:38:44.033Z,17.50
2019-04-07T14:41:29.928Z,15.38
2019-04-07T14:44:23.611Z,15.28
2019-04-07T14:47:27.288Z,14.23
2019-04-07T14:50:25.240Z,11.83
2019-04-07T14:53:25.440Z,12.75
2019-04-07T14:56:18.674Z,15.23
2019-04-07T14:59:16.163Z,15.00
2019-04-07T15:02:00.484Z,14.60
2019-04-07T15:04:49.456Z,15.05
2019-04-07T15:07:42.547Z,14.98
2019-04-07T15:10:24.566Z,15.10
2019-04-07T15:13:05.320Z,15.23
2019-04-07T15:15:41.784Z,15.90
2019-04-07T15:18:17.543Z,16.73
2019-04-07T15:20:52.811Z,16.55
2019-04-07T15:23:30.953Z,13.32
2019-04-07T15:26:05.334Z,12.93
2019-04-07T15:28:41.548Z,13.48
2019-04-07T15:31:19.473Z,13.80
2019-04-07T15:33:55.302Z,14.98
2019-04-07T15:36:31.607Z,13.38
2019-04-07T15:39:09.850Z,13.30
2019-04-07T15:41:45.548Z,12.58
2019-04-07T15:44:20.806Z,11.53
2019-04-07T15:46:56.581Z,11.85
2019-04-07T15:49:32.142Z,12.98
2019-04-07T15:52:08.975Z,10.58
2019-04-07T15:54:44.222Z,9.83
2019-04-07T15:57:21.675Z,10.95
2019-04-07T16:00:00.086Z,9.93
2019-04-07T16:02:33.533Z,10.53
2019-04-07T16:05:09.401Z,10.13
2019-04-07T16:07:46.578Z,9.30
2019-04-07T16:10:23.546Z,9.15
2019-04-07T16:12:59.555Z,9.55
2019-04-07T16:15:35.065Z,9.30
2019-04-07T16:18:10.611Z,9.10
2019-04-07T16:20:45.805Z,8.73
2019-04-07T16:23:22.189Z,9.05
2019-04-07T16:25:58.406Z,9.45
2019-04-07T16:28:35.045Z,8.00
2019-04-07T16:31:10.293Z,8.40
2019-04-07T16:33:46.494Z,8.93
2019-04-07T16:36:24.492Z,8.33
2019-04-07T16:39:00.458Z,9.38
2019-04-07T16:41:36.010Z,8.35
2019-04-07T16:44:11.825Z,8.08
2019-04-07T16:47:01.620Z,8.15
2019-04-07T16:49:34.880Z,8.83
2019-04-07T16:52:12.332Z,8.35
2019-04-07T16:54:47.556Z,8.05
2019-04-07T16:57:27.054Z,9.00
2019-04-07T17:00:02.433Z,8.73
2019-04-07T17:02:38.442Z,8.45
2019-04-07T17:05:14.915Z,7.90
2019-04-07T17:07:50.850Z,8.73
2019-04-07T17:10:32.420Z,8.38
2019-04-07T17:13:19.865Z,7.92
2019-04-07T17:15:51.967Z,8.78
2019-04-07T17:18:40.919Z,7.87
2019-04-07T17:21:16.581Z,8.30
2019-04-07T17:23:55.443Z,8.53
2019-04-07T17:26:29.574Z,8.18
2019-04-07T17:29:05.006Z,7.90
2019-04-07T17:31:41.178Z,8.38
2019-04-07T17:34:17.317Z,8.38
2019-04-07T17:36:55.968Z,8.03
2019-04-07T17:39:41.943Z,8.08
2019-04-07T17:42:19.794Z,7.85
2019-04-07T17:45:14.016Z,8.00
2019-04-07T17:48:17.357Z,7.85
2019-04-07T17:51:23.913Z,8.10
2019-04-07T17:54:17.073Z,9.65
2019-04-07T17:57:10.261Z,8.98
2019-04-07T18:00:07.811Z,9.43
2019-04-07T18:02:54.615Z,8.03
2019-04-07T18:05:38.767Z,7.92
2019-04-07T18:08:46.282Z,8.90
2019-04-07T18:11:54.525Z,8.73
2019-04-07T18:14:56.983Z,8.15
2019-04-07T18:17:49.756Z,8.15
2019-04-07T18:20:56.075Z,8.88
2019-04-07T18:23:55.569Z,8.98
2019-04-07T18:26:45.117Z,8.78
2019-04-07T18:29:38.149Z,8.80
2019-04-07T18:32:31.903Z,8.50
2019-04-07T18:35:30.782Z,9.10
2019-04-07T18:38:36.350Z,9.48
2019-04-07T18:41:34.016Z,10.30
2019-04-07T18:44:18.373Z,9.25
2019-04-07T18:47:10.209Z,11.30
2019-04-07T18:50:07.542Z,9.25
2019-04-07T18:53:00.248Z,9.18
2019-04-07T18:55:53.734Z,9.98
2019-04-07T18:58:47.069Z,8.83
2019-04-07T19:01:40.099Z,9.98
2019-04-07T19:04:28.028Z,10.13
2019-04-07T19:07:22.489Z,10.63
2019-04-07T19:10:37.611Z,11.35
2019-04-07T19:13:26.729Z,9.80
2019-04-07T19:16:21.723Z,9.13
2019-04-07T19:19:19.225Z,9.98
2019-04-07T19:22:15.814Z,9.85
2019-04-07T19:25:14.304Z,10.05
2019-04-07T19:28:06.014Z,10.95
2019-04-07T19:30:52.463Z,11.05
2019-04-07T19:33:35.856Z,9.60
2019-04-07T19:36:44.313Z,12.35
2019-04-07T19:39:41.050Z,10.43
2019-04-07T19:42:43.858Z,10.23
2019-04-07T19:45:43.628Z,10.53
2019-04-07T19:48:28.821Z,9.80
2019-04-07T19:51:28.308Z,11.75
2019-04-07T19:54:27.256Z,14.80
2019-04-07T19:57:13.343Z,13.15
2019-04-07T19:59:55.535Z,13.32
2019-04-07T20:02:55.859Z,13.25
2019-04-07T20:05:59.027Z,14.73
2019-04-07T20:08:49.398Z,15.50
2019-04-07T20:11:42.145Z,16.20
2019-04-07T20:14:52.689Z,19.05
2019-04-07T20:17:51.390Z,17.42
2019-04-07T20:20:31.107Z,18.50
2019-04-07T20:23:27.777Z,18.35
2019-04-07T20:26:07.984Z,18.17
2019-04-07T20:29:09.677Z,27.77
2019-04-07T20:32:05.780Z,34.55
2019-04-07T20:35:03.296Z,30.68
2019-04-07T20:37:59.760Z,29.27
2019-04-07T20:43:51.262Z,58.25
2019-04-07T20:46:58.253Z,71.85
2019-04-07T20:50:01.544Z,81.32
2019-04-07T20:53:14.307Z,84.30
2019-04-07T20:55:58.164Z,87.78
2019-04-07T20:59:08.018Z,95.10
2019-04-07T21:02:20.939Z,102.70
2019-04-07T21:05:06.757Z,109.85
2019-04-07T21:08:10.364Z,114.35
2019-04-07T21:11:04.700Z,122.47
2019-04-07T21:14:16.349Z,131.78
2019-04-07T21:17:17.492Z,123.28
2019-04-07T21:20:11.794Z,130.67
2019-04-07T21:23:14.055Z,135.22
2019-04-07T21:26:08.293Z,124.20
2019-04-07T21:28:58.879Z,123.20
2019-04-07T21:31:54.235Z,125.35
2019-04-07T21:34:47.272Z,131.63
2019-04-07T21:37:40.862Z,118.65
2019-04-07T21:40:37.884Z,122.05
2019-04-07T21:43:26.665Z,122.67
2019-04-07T21:46:29.127Z,119.95
2019-04-07T21:49:32.827Z,118.57
2019-04-07T21:52:32.485Z,117.70
2019-04-07T21:55:26.011Z,119.97
2019-04-07T21:58:21.850Z,121.13
2019-04-07T22:01:18.634Z,120.95
2019-04-07T22:04:25.327Z,116.77
2019-04-07T22:07:19.531Z,127.35
2019-04-07T22:09:58.849Z,120.33
2019-04-07T22:12:34.525Z,120.75
2019-04-07T22:15:13.469Z,116.05
2019-04-07T22:17:47.841Z,119.20
2019-04-07T22:20:23.158Z,123.30
2019-04-07T22:23:01.396Z,119.60
2019-04-07T22:25:44.149Z,122.90
2019-04-07T22:28:19.485Z,121.13
2019-04-07T22:30:55.959Z,125.75
2019-04-07T22:33:32.480Z,125.85
2019-04-07T22:36:11.254Z,129.47
2019-04-07T22:38:45.134Z,142.57
2019-04-07T22:41:20.379Z,141.90
2019-04-07T22:43:55.632Z,135.00
2019-04-07T22:46:31.088Z,146.32
2019-04-07T22:49:07.100Z,134.50
2019-04-07T22:51:44.624Z,155.65
2019-04-07T22:54:19.331Z,160.07
2019-04-07T22:56:54.671Z,150.12
2019-04-07T22:59:30.204Z,157.18
2019-04-07T23:02:05.529Z,171.02
2019-04-07T23:04:40.760Z,165.37
2019-04-07T23:07:15.995Z,177.20
2019-04-07T23:09:51.774Z,200.15
2019-04-07T23:12:27.112Z,183.80
2019-04-07T23:15:02.293Z,173.72
2019-04-07T23:17:37.705Z,180.45
2019-04-07T23:20:13.123Z,181.20
2019-04-07T23:22:48.439Z,198.40
2019-04-07T23:25:24.713Z,199.42
2019-04-07T23:28:00.598Z,214.17
2019-04-07T23:30:35.809Z,203.32
2019-04-07T23:33:11.049Z,202.18
2019-04-07T23:35:46.869Z,237.25
2019-04-07T23:38:22.040Z,222.73
2019-04-07T23:40:57.738Z,221.15
2019-04-07T23:43:33.429Z,234.10
2019-04-07T23:46:19.872Z,233.43
2019-04-07T23:48:45.706Z,235.88
2019-04-07T23:51:20.920Z,223.55
2019-04-07T23:54:12.488Z,229.32
2019-04-07T23:56:47.824Z,246.07
2019-04-07T23:59:23.140Z,281.20
